aviador You're here:

KAKR Decoded Metar

AKRON in OH, USA
Report Time2017-05-24 16:54:00
UTC Time2017-05-24 17:54:07
Flight Rules mvfr MVFR
WindCalm
Visibility9999 m
Phenomena:N/A
Clouds:Overcast 018 Hf
Expected CloudBase > 2,000 ft AGL from Temp-Dew spread
Ceiling1,800 ft
Temp18°C (ISA +5)
Dew Point13°C (73% RH)
QNH1001 hPa
Density Alt2,431 ft
Elevation1,191 ft
Report Wrong Elevation
Raw Report
KAKR 241654Z AUTO 00000KT 10SM OVC018 18/13 A2957 RMK AO2 RAB42E51
SLP007 P0000 T01830133 TSNO=

Extra information for KAKR:More info

Metar Taf Metar & Taf Last 4 Metars F.Rules Stats Wind Profile Meteogram Temp Stats Airport Information Weather charts Add Link Nearby VenuesMetar ALERT Operation Metar Decoded Social comments

AIRNAV info for KAKR